Time;durP1;ratioP1;P1;durP2;ratioP2;P2;SDS_P1;SDS_P2;PMS_P1;PMS_P2;Temp;Humidity;BMP_temperature;BMP_pressure;BME280_temperature;BME280_humidity;BME280_pressure;Samples;Min_cycle;Max_cycle;Signal;HPM_P1;HPM_P2
2023/07/16 00:02:59;;;;;;;8.77;7.80;;;;;;;;;;6285612;28;20190;-63
2023/07/16 00:06:00;;;;;;;9.87;7.37;;;;;;;;;;6257241;28;20225;-63
2023/07/16 00:09:01;;;;;;;9.60;8.10;;;;;;;;;;6250342;28;20289;-63
2023/07/16 00:12:02;;;;;;;10.57;7.37;;;;;;;;;;6265978;28;20195;-63
2023/07/16 00:15:03;;;;;;;7.97;7.17;;;;;;;;;;6248358;28;20201;-63
2023/07/16 00:18:05;;;;;;;9.70;7.63;;;;;;;;;;6255012;28;20214;-63
2023/07/16 00:21:06;;;;;;;7.60;6.90;;;;;;;;;;6247547;28;20206;-63
2023/07/16 00:24:07;;;;;;;8.30;7.17;;;;;;;;;;6254755;28;20189;-63
2023/07/16 00:27:08;;;;;;;9.17;7.57;;;;;;;;;;6260262;28;20221;-63
2023/07/16 00:30:09;;;;;;;8.63;7.37;;;;;;;;;;6242537;28;20228;-63
2023/07/16 00:33:11;;;;;;;8.10;7.30;;;;;;;;;;6270741;28;20191;-63
2023/07/16 00:36:12;;;;;;;9.97;7.13;;;;;;;;;;6249891;28;20190;-63
2023/07/16 00:39:13;;;;;;;8.10;7.40;;;;;;;;;;6246779;28;20213;-63
2023/07/16 00:42:14;;;;;;;7.87;7.07;;;;;;;;;;6245605;28;20194;-63
2023/07/16 00:45:15;;;;;;;7.87;7.17;;;;;;;;;;6251774;28;20186;-63
2023/07/16 00:48:16;;;;;;;8.73;7.10;;;;;;;;;;6242471;28;20236;-63
2023/07/16 00:51:18;;;;;;;8.10;7.07;;;;;;;;;;6245574;28;20194;-63
2023/07/16 00:54:20;;;;;;;8.30;6.87;;;;;;;;;;6244813;28;20193;-63
2023/07/16 00:57:21;;;;;;;8.87;7.30;;;;;;;;;;6266830;28;20190;-63
2023/07/16 01:00:22;;;;;;;7.37;6.63;;;;;;;;;;6250766;28;20205;-63
2023/07/16 01:03:23;;;;;;;8.83;7.43;;;;;;;;;;6263786;28;20214;-63
2023/07/16 01:06:27;;;;;;;8.73;7.83;;;;;;;;;;6246206;28;20182;-63
2023/07/16 01:09:29;;;;;;;7.97;7.17;;;;;;;;;;6254681;28;20194;-63
2023/07/16 01:12:31;;;;;;;8.10;7.40;;;;;;;;;;6246962;28;20198;-63
2023/07/16 01:15:32;;;;;;;8.93;7.07;;;;;;;;;;6257540;28;20190;-63
2023/07/16 01:18:33;;;;;;;8.53;6.73;;;;;;;;;;6245519;28;20377;-63
2023/07/16 01:21:37;;;;;;;7.67;6.87;;;;;;;;;;6248571;28;20199;-63
2023/07/16 01:25:00;;;;;;;9.07;8.17;;;;;;;;;;6263705;28;20217;-63
2023/07/16 01:28:01;;;;;;;8.60;7.80;;;;;;;;;;6288194;28;20227;-63
2023/07/16 01:31:02;;;;;;;7.33;6.73;;;;;;;;;;6260154;28;20217;-63
2023/07/16 01:34:04;;;;;;;8.43;7.37;;;;;;;;;;6251878;28;20193;-63
2023/07/16 01:37:05;;;;;;;9.07;7.20;;;;;;;;;;6256374;28;20205;-63
2023/07/16 01:40:08;;;;;;;8.37;6.93;;;;;;;;;;6252691;28;20272;-63
2023/07/16 01:43:09;;;;;;;10.37;8.07;;;;;;;;;;6249930;28;20305;-63
2023/07/16 01:46:11;;;;;;;7.40;6.67;;;;;;;;;;6268804;28;20202;-63
2023/07/16 01:49:13;;;;;;;9.57;7.70;;;;;;;;;;6264626;28;20201;-64
2023/07/16 01:52:14;;;;;;;8.70;7.90;;;;;;;;;;6258468;28;20198;-63
2023/07/16 01:55:15;;;;;;;7.40;6.73;;;;;;;;;;6248130;28;20197;-63
2023/07/16 01:58:16;;;;;;;10.47;7.90;;;;;;;;;;6262591;28;20213;-63
2023/07/16 02:01:17;;;;;;;8.23;7.40;;;;;;;;;;6282652;28;20217;-63
2023/07/16 02:04:18;;;;;;;8.07;7.23;;;;;;;;;;6243614;28;20194;-63
2023/07/16 02:07:19;;;;;;;8.80;7.90;;;;;;;;;;6271668;28;20194;-63
2023/07/16 02:10:20;;;;;;;7.70;7.10;;;;;;;;;;6246012;28;20194;-63
2023/07/16 02:13:21;;;;;;;11.73;7.40;;;;;;;;;;6248953;28;20198;-63
2023/07/16 02:16:22;;;;;;;9.80;8.00;;;;;;;;;;6252652;28;20241;-63
2023/07/16 02:19:25;;;;;;;8.57;7.83;;;;;;;;;;6246023;28;20213;-63
2023/07/16 02:22:26;;;;;;;10.23;8.40;;;;;;;;;;6241219;28;20248;-63
2023/07/16 02:25:27;;;;;;;8.73;7.40;;;;;;;;;;6249623;28;20196;-63
2023/07/16 02:28:28;;;;;;;8.37;6.93;;;;;;;;;;6251130;28;20291;-63
2023/07/16 02:31:29;;;;;;;8.30;7.50;;;;;;;;;;6273947;28;20241;-63
2023/07/16 02:34:30;;;;;;;10.97;7.47;;;;;;;;;;6273048;28;20235;-63
2023/07/16 02:37:31;;;;;;;8.67;7.77;;;;;;;;;;6241793;28;20199;-63
2023/07/16 02:40:33;;;;;;;7.93;7.23;;;;;;;;;;6254525;28;20221;-63
2023/07/16 02:43:34;;;;;;;12.47;7.40;;;;;;;;;;6263954;28;20263;-63
2023/07/16 02:46:35;;;;;;;9.43;7.43;;;;;;;;;;6252730;28;20200;-63
2023/07/16 02:49:36;;;;;;;7.77;7.07;;;;;;;;;;6273382;28;20197;-63
2023/07/16 02:52:37;;;;;;;8.30;7.40;;;;;;;;;;6259051;28;20193;-63
2023/07/16 02:55:38;;;;;;;8.23;7.43;;;;;;;;;;6258576;28;20228;-63
2023/07/16 02:58:39;;;;;;;8.30;7.43;;;;;;;;;;6262490;28;20214;-63
2023/07/16 03:01:40;;;;;;;8.80;7.37;;;;;;;;;;6254167;28;20194;-63
2023/07/16 03:04:42;;;;;;;8.83;8.00;;;;;;;;;;6256282;28;20216;-63
2023/07/16 03:07:43;;;;;;;9.33;7.67;;;;;;;;;;6244404;28;20245;-63
2023/07/16 03:10:44;;;;;;;8.63;7.87;;;;;;;;;;6278091;28;20198;-63
2023/07/16 03:13:45;;;;;;;9.37;7.70;;;;;;;;;;6255081;28;20197;-63
2023/07/16 03:16:46;;;;;;;8.10;7.27;;;;;;;;;;6256529;28;20197;-63
2023/07/16 03:19:47;;;;;;;9.73;8.03;;;;;;;;;;6247347;28;20226;-63
2023/07/16 03:22:48;;;;;;;8.90;7.97;;;;;;;;;;6272565;28;20280;-63
2023/07/16 03:25:49;;;;;;;8.10;7.30;;;;;;;;;;6248236;28;20194;-63
2023/07/16 03:28:50;;;;;;;10.43;7.87;;;;;;;;;;6285491;28;20303;-64
2023/07/16 03:31:51;;;;;;;10.10;7.50;;;;;;;;;;6250453;28;20209;-66
2023/07/16 03:34:52;;;;;;;10.07;7.40;;;;;;;;;;6242310;28;20197;-65
2023/07/16 03:37:54;;;;;;;9.00;8.20;;;;;;;;;;6239966;28;20240;-65
2023/07/16 03:40:55;;;;;;;8.87;8.00;;;;;;;;;;6255484;28;20190;-65
2023/07/16 03:43:56;;;;;;;10.53;7.67;;;;;;;;;;6247286;28;20237;-65
2023/07/16 03:46:57;;;;;;;9.03;7.43;;;;;;;;;;6243794;28;20201;-65
2023/07/16 03:49:58;;;;;;;7.90;7.10;;;;;;;;;;6246965;28;20193;-65
2023/07/16 03:52:59;;;;;;;8.37;7.57;;;;;;;;;;6273829;28;20205;-65
2023/07/16 03:56:00;;;;;;;9.30;8.40;;;;;;;;;;6257494;28;20183;-65
2023/07/16 03:59:01;;;;;;;8.13;7.43;;;;;;;;;;6245308;28;20246;-65
2023/07/16 04:02:02;;;;;;;10.50;8.07;;;;;;;;;;6275217;28;20195;-65
2023/07/16 04:05:04;;;;;;;8.77;7.87;;;;;;;;;;6245894;28;20260;-65
2023/07/16 04:08:05;;;;;;;8.63;7.83;;;;;;;;;;6256467;28;20193;-65
2023/07/16 04:11:06;;;;;;;8.33;7.63;;;;;;;;;;6239961;28;20197;-65
2023/07/16 04:14:07;;;;;;;9.03;8.00;;;;;;;;;;6249319;28;20256;-65
2023/07/16 04:17:08;;;;;;;8.97;7.63;;;;;;;;;;6242360;28;20193;-65
2023/07/16 04:20:10;;;;;;;9.20;8.30;;;;;;;;;;6259248;28;20217;-65
2023/07/16 04:23:11;;;;;;;7.87;7.17;;;;;;;;;;6263041;28;20190;-65
2023/07/16 04:26:12;;;;;;;8.87;7.83;;;;;;;;;;6245643;28;20364;-65
2023/07/16 04:29:13;;;;;;;9.10;7.40;;;;;;;;;;6273887;28;20234;-65
2023/07/16 04:32:14;;;;;;;8.30;7.60;;;;;;;;;;6233405;28;20232;-65
2023/07/16 04:35:15;;;;;;;9.03;7.63;;;;;;;;;;6239389;28;20194;-65
2023/07/16 04:38:17;;;;;;;10.33;7.63;;;;;;;;;;6237778;28;20260;-66
2023/07/16 04:41:18;;;;;;;8.93;8.23;;;;;;;;;;6276382;28;20280;-66
2023/07/16 04:44:19;;;;;;;10.37;7.90;;;;;;;;;;6263514;28;20185;-66
2023/07/16 04:47:20;;;;;;;9.17;8.37;;;;;;;;;;6237988;28;20181;-66
2023/07/16 04:50:21;;;;;;;9.60;8.50;;;;;;;;;;6276934;28;20236;-66
2023/07/16 04:53:25;;;;;;;8.83;8.03;;;;;;;;;;6272358;28;20208;-66
2023/07/16 04:56:26;;;;;;;9.20;8.30;;;;;;;;;;6251369;28;20194;-66
2023/07/16 04:59:27;;;;;;;9.03;8.23;;;;;;;;;;6286479;28;20228;-66
2023/07/16 05:02:29;;;;;;;9.37;8.37;;;;;;;;;;6256676;28;20214;-66
2023/07/16 05:05:30;;;;;;;10.03;8.10;;;;;;;;;;6243937;28;20194;-66
2023/07/16 05:08:31;;;;;;;12.77;8.30;;;;;;;;;;6260243;28;20194;-65
2023/07/16 05:11:33;;;;;;;9.80;8.80;;;;;;;;;;6259485;28;20264;-65
2023/07/16 05:14:43;;;;;;;10.17;8.73;;;;;;;;;;6245310;28;20332;-65
2023/07/16 05:17:44;;;;;;;9.63;8.73;;;;;;;;;;6255921;28;20301;-65
2023/07/16 05:20:48;;;;;;;9.67;8.77;;;;;;;;;;6246404;28;20186;-66
2023/07/16 05:23:49;;;;;;;8.77;8.07;;;;;;;;;;6264497;28;20221;-66
2023/07/16 05:26:51;;;;;;;9.30;8.40;;;;;;;;;;6249587;28;20292;-66
2023/07/16 05:29:53;;;;;;;8.80;7.90;;;;;;;;;;6279662;28;20198;-65
2023/07/16 05:32:54;;;;;;;9.00;8.20;;;;;;;;;;6252533;28;20199;-65
2023/07/16 05:35:55;;;;;;;9.20;8.40;;;;;;;;;;6276370;28;20191;-65
2023/07/16 05:38:56;;;;;;;9.67;8.30;;;;;;;;;;6251045;28;20225;-66
2023/07/16 05:41:57;;;;;;;9.07;8.17;;;;;;;;;;6258450;28;20186;-66
2023/07/16 05:44:58;;;;;;;9.70;8.60;;;;;;;;;;6250470;28;20200;-67
2023/07/16 05:47:59;;;;;;;9.70;8.67;;;;;;;;;;6248551;28;20194;-67
2023/07/16 05:51:00;;;;;;;9.47;8.53;;;;;;;;;;6250344;28;20201;-67
2023/07/16 05:54:01;;;;;;;9.07;8.27;;;;;;;;;;6259638;28;20204;-66
2023/07/16 05:57:03;;;;;;;9.47;8.50;;;;;;;;;;6257842;28;20288;-67
2023/07/16 06:00:04;;;;;;;9.20;8.40;;;;;;;;;;6257283;28;20286;-66
2023/07/16 06:03:05;;;;;;;9.97;8.83;;;;;;;;;;6251690;28;20281;-67
2023/07/16 06:06:09;;;;;;;9.90;9.00;;;;;;;;;;6275694;28;20190;-68
2023/07/16 06:09:10;;;;;;;10.13;8.40;;;;;;;;;;6265643;28;20281;-67
2023/07/16 06:12:11;;;;;;;11.63;8.87;;;;;;;;;;6246662;28;20232;-67
2023/07/16 06:15:12;;;;;;;10.50;8.77;;;;;;;;;;6265374;28;20197;-67
2023/07/16 06:18:13;;;;;;;9.97;8.97;;;;;;;;;;6260475;28;20211;-66
2023/07/16 06:21:14;;;;;;;9.20;8.40;;;;;;;;;;6244584;28;20259;-66
2023/07/16 06:24:15;;;;;;;9.33;8.53;;;;;;;;;;6258969;28;20204;-66
2023/07/16 06:27:16;;;;;;;8.87;8.07;;;;;;;;;;6250212;28;20287;-66
2023/07/16 06:30:17;;;;;;;9.93;8.60;;;;;;;;;;6246424;28;20189;-65
2023/07/16 06:33:18;;;;;;;11.10;8.47;;;;;;;;;;6263893;28;20194;-65
2023/07/16 06:36:20;;;;;;;9.40;8.60;;;;;;;;;;6292355;28;20206;-65
2023/07/16 06:39:21;;;;;;;9.13;8.33;;;;;;;;;;6259675;28;20234;-66
2023/07/16 06:42:22;;;;;;;8.63;7.83;;;;;;;;;;6248015;28;20202;-66
2023/07/16 06:45:23;;;;;;;9.70;8.77;;;;;;;;;;6252068;28;20226;-65
2023/07/16 06:48:24;;;;;;;9.97;8.50;;;;;;;;;;6243174;28;20198;-65
2023/07/16 06:51:25;;;;;;;7.53;6.93;;;;;;;;;;6249318;28;20210;-65
2023/07/16 06:54:26;;;;;;;7.60;6.90;;;;;;;;;;6253385;28;20194;-64
2023/07/16 06:57:27;;;;;;;8.53;7.83;;;;;;;;;;6253668;28;20190;-65
2023/07/16 07:00:28;;;;;;;7.67;6.93;;;;;;;;;;6287195;28;20193;-65
2023/07/16 07:03:30;;;;;;;8.13;7.43;;;;;;;;;;6277710;28;20190;-64
2023/07/16 07:06:31;;;;;;;5.83;5.33;;;;;;;;;;6245032;28;20268;-65
2023/07/16 07:09:32;;;;;;;6.93;6.27;;;;;;;;;;6243704;28;20196;-65
2023/07/16 07:12:37;;;;;;;7.47;6.87;;;;;;;;;;6245280;28;20199;-66
2023/07/16 07:15:38;;;;;;;7.23;6.53;;;;;;;;;;6277023;28;20198;-65
2023/07/16 07:18:39;;;;;;;11.70;7.37;;;;;;;;;;6251984;28;20319;-65
2023/07/16 07:21:40;;;;;;;6.70;6.10;;;;;;;;;;6276393;28;20272;-66
2023/07/16 07:24:41;;;;;;;7.43;6.80;;;;;;;;;;6250441;28;20194;-65
2023/07/16 07:27:42;;;;;;;7.00;6.37;;;;;;;;;;6270147;28;20256;-65
2023/07/16 07:30:44;;;;;;;5.13;4.60;;;;;;;;;;6272665;28;20191;-66
2023/07/16 07:33:45;;;;;;;5.53;5.03;;;;;;;;;;6266198;28;20190;-66
2023/07/16 07:36:46;;;;;;;5.83;4.70;;;;;;;;;;6268223;28;20194;-66
2023/07/16 07:39:52;;;;;;;4.57;4.17;;;;;;;;;;6264303;28;20249;-68
2023/07/16 07:42:53;;;;;;;5.23;4.73;;;;;;;;;;6257320;28;20205;-66
2023/07/16 07:45:54;;;;;;;5.13;4.73;;;;;;;;;;6250193;28;20218;-67
2023/07/16 07:48:55;;;;;;;5.03;4.53;;;;;;;;;;6245544;28;20248;-66
2023/07/16 07:51:56;;;;;;;5.07;4.50;;;;;;;;;;6273271;28;20204;-66
2023/07/16 07:54:58;;;;;;;7.73;4.70;;;;;;;;;;6254039;28;20206;-66
2023/07/16 07:57:59;;;;;;;5.37;4.70;;;;;;;;;;6245859;28;20261;-67
2023/07/16 08:01:09;;;;;;;5.43;4.93;;;;;;;;;;6250103;28;20191;-66
2023/07/16 08:04:10;;;;;;;5.20;4.80;;;;;;;;;;6254497;28;20229;-65
2023/07/16 08:07:11;;;;;;;5.00;4.60;;;;;;;;;;6229942;28;20190;-68
2023/07/16 08:10:12;;;;;;;6.20;3.93;;;;;;;;;;6262734;28;20356;-65
2023/07/16 08:13:13;;;;;;;5.90;5.30;;;;;;;;;;6241938;28;20198;-66
2023/07/16 08:16:14;;;;;;;5.67;4.93;;;;;;;;;;6253319;28;20281;-69
2023/07/16 08:19:15;;;;;;;7.83;5.20;;;;;;;;;;6251979;28;20222;-69
2023/07/16 08:22:16;;;;;;;6.37;4.97;;;;;;;;;;6255965;28;20269;-68
2023/07/16 08:25:17;;;;;;;5.63;5.13;;;;;;;;;;6241362;28;20282;-69
2023/07/16 08:28:18;;;;;;;6.00;5.13;;;;;;;;;;6269073;28;20241;-66
2023/07/16 08:31:19;;;;;;;5.30;4.57;;;;;;;;;;6255198;28;20201;-67
2023/07/16 08:34:20;;;;;;;5.03;4.63;;;;;;;;;;6243654;28;20235;-67
2023/07/16 08:37:21;;;;;;;5.17;4.77;;;;;;;;;;6232520;28;20196;-67
2023/07/16 08:40:22;;;;;;;5.10;4.70;;;;;;;;;;6256995;28;20279;-67
2023/07/16 08:43:24;;;;;;;5.53;5.03;;;;;;;;;;6256910;28;20204;-67
2023/07/16 08:46:25;;;;;;;4.93;4.50;;;;;;;;;;6257358;28;20193;-67
2023/07/16 08:49:29;;;;;;;4.87;4.47;;;;;;;;;;6257047;28;20220;-67
2023/07/16 08:52:30;;;;;;;5.73;4.57;;;;;;;;;;6273541;28;20323;-67
2023/07/16 08:55:31;;;;;;;4.53;4.13;;;;;;;;;;6256683;28;20235;-67
2023/07/16 08:58:32;;;;;;;5.43;4.67;;;;;;;;;;6273267;28;20220;-67
2023/07/16 09:01:34;;;;;;;5.43;4.93;;;;;;;;;;6273780;28;20276;-67
2023/07/16 09:04:35;;;;;;;4.53;4.17;;;;;;;;;;6256608;28;20185;-67
2023/07/16 09:07:39;;;;;;;4.90;4.50;;;;;;;;;;6255812;28;20194;-67
2023/07/16 09:10:43;;;;;;;5.13;4.30;;;;;;;;;;6254413;28;20265;-67
2023/07/16 09:13:45;;;;;;;4.50;4.10;;;;;;;;;;6267660;28;20186;-67
2023/07/16 09:16:52;;;;;;;6.13;4.20;;;;;;;;;;6252962;28;20186;-67
2023/07/16 09:19:53;;;;;;;4.90;4.50;;;;;;;;;;6255683;28;20241;-67
2023/07/16 09:22:55;;;;;;;4.30;4.00;;;;;;;;;;6254783;28;20248;-65
2023/07/16 09:25:57;;;;;;;4.50;4.10;;;;;;;;;;6259268;28;20186;-70
2023/07/16 09:28:58;;;;;;;4.70;4.30;;;;;;;;;;6267631;28;20235;-65
2023/07/16 09:32:02;;;;;;;4.63;4.23;;;;;;;;;;6247296;28;20202;-65
2023/07/16 09:35:07;;;;;;;5.23;4.77;;;;;;;;;;6251922;28;20198;-65
2023/07/16 09:38:09;;;;;;;5.33;4.93;;;;;;;;;;6246480;28;20219;-65
2023/07/16 09:41:10;;;;;;;4.83;4.53;;;;;;;;;;6249379;28;20195;-65
2023/07/16 09:44:12;;;;;;;5.30;4.80;;;;;;;;;;6275932;28;20213;-65
2023/07/16 09:47:13;;;;;;;5.50;5.00;;;;;;;;;;6271085;28;20272;-65
2023/07/16 09:50:14;;;;;;;6.00;5.00;;;;;;;;;;6253978;28;20190;-65
2023/07/16 09:53:16;;;;;;;5.10;4.70;;;;;;;;;;6247187;28;20357;-65
2023/07/16 09:56:19;;;;;;;5.20;4.80;;;;;;;;;;6254811;28;20197;-65
2023/07/16 09:59:22;;;;;;;5.37;4.87;;;;;;;;;;6270821;28;20202;-64
2023/07/16 10:02:23;;;;;;;5.10;4.60;;;;;;;;;;6265887;28;20218;-65
2023/07/16 10:05:25;;;;;;;5.93;5.43;;;;;;;;;;6267238;28;20189;-65
2023/07/16 10:08:36;;;;;;;5.30;4.80;;;21.30;87.70;;;;;;6253240;28;20198;-65
2023/07/16 10:11:37;;;;;;;5.20;4.73;;;26.50;62.10;;;;;;6299294;28;20186;-65
2023/07/16 10:14:44;;;;;;;5.40;4.90;;;;;;;;;;6247717;28;20191;-65
2023/07/16 10:17:51;;;;;;;5.87;5.37;;;;;;;;;;6262579;28;20225;-65
2023/07/16 10:20:52;;;;;;;5.47;4.97;;;26.70;64.40;;;;;;6272437;28;20186;-65
2023/07/16 10:24:03;;;;;;;5.53;5.03;;;26.90;63.60;;;;;;6269472;28;20217;-65
2023/07/16 10:27:04;;;;;;;5.47;5.00;;;27.00;62.10;;;;;;6253999;28;20194;-65
2023/07/16 10:30:05;;;;;;;5.43;4.67;;;27.10;62.50;;;;;;6258883;28;20185;-65
2023/07/16 10:33:12;;;;;;;5.80;5.10;;;27.30;60.30;;;;;;6275621;28;20190;-65
2023/07/16 10:36:19;;;;;;;5.17;4.70;;;27.40;64.00;;;;;;6243649;28;20205;-65
2023/07/16 10:39:20;;;;;;;6.13;5.33;;;27.50;62.50;;;;;;6248357;28;20225;-64
2023/07/16 10:42:22;;;;;;;5.53;4.90;;;27.50;59.80;;;;;;6251323;28;20194;-65
2023/07/16 10:45:23;;;;;;;5.37;4.93;;;27.60;60.60;;;;;;6252558;28;20195;-66
2023/07/16 10:48:27;;;;;;;5.77;5.10;;;27.60;61.80;;;;;;6242346;28;20218;-64
2023/07/16 10:51:28;;;;;;;6.17;4.60;;;27.60;63.90;;;;;;6241249;28;20222;-62
2023/07/16 10:54:28;;;;;;;5.03;4.63;;;27.50;64.00;;;;;;6248316;28;20195;-63
2023/07/16 10:57:29;;;;;;;4.93;4.53;;;27.50;64.00;;;;;;6252986;28;20212;-65
2023/07/16 11:00:30;;;;;;;5.40;5.00;;;27.50;59.70;;;;;;6240418;28;20224;-65
2023/07/16 11:03:30;;;;;;;5.53;5.13;;;27.60;62.00;;;;;;6236545;28;20289;-65
2023/07/16 11:06:31;;;;;;;5.20;4.80;;;27.80;64.20;;;;;;6260821;28;20197;-67
2023/07/16 11:09:33;;;;;;;5.17;4.77;;;27.90;63.90;;;;;;6237066;28;20293;-66
2023/07/16 11:12:33;;;;;;;4.77;4.37;;;28.10;62.00;;;;;;6255148;28;20185;-66
2023/07/16 11:15:35;;;;;;;5.10;4.70;;;28.20;60.30;;;;;;6242382;28;20194;-65
2023/07/16 11:18:36;;;;;;;6.10;4.77;;;28.30;59.70;;;;;;6257047;28;20220;-66
2023/07/16 11:21:37;;;;;;;5.50;5.10;;;28.30;56.70;;;;;;6244828;28;20190;-65
2023/07/16 11:24:42;;;;;;;6.37;5.23;;;28.40;57.70;;;;;;6250048;28;20225;-66
2023/07/16 11:27:43;;;;;;;5.20;4.70;;;28.50;58.90;;;;;;6240774;28;20239;-66
2023/07/16 11:30:44;;;;;;;6.00;5.10;;;28.50;59.70;;;;;;6275462;28;20194;-67
2023/07/16 11:33:45;;;;;;;5.23;4.70;;;28.60;60.50;;;;;;6258375;28;20285;-66
2023/07/16 11:36:46;;;;;;;5.67;5.20;;;28.60;61.00;;;;;;6264019;28;20190;-66
2023/07/16 11:39:49;;;;;;;5.37;4.87;;;28.70;63.60;;;;;;6244109;28;20226;-66
2023/07/16 11:42:49;;;;;;;6.50;5.90;;;28.70;63.60;;;;;;6241596;28;20192;-64
2023/07/16 11:45:50;;;;;;;5.30;4.90;;;28.70;64.50;;;;;;6241537;28;20278;-67
2023/07/16 11:48:50;;;;;;;5.63;5.23;;;28.70;65.10;;;;;;6245288;28;20293;-67
2023/07/16 11:51:51;;;;;;;5.80;5.30;;;28.90;64.20;;;;;;6245543;28;20836;-67
2023/07/16 11:54:53;;;;;;;6.80;4.97;;;29.10;63.10;;;;;;6276126;28;20191;-66
2023/07/16 11:57:56;;;;;;;5.77;5.37;;;29.40;61.10;;;;;;6278486;28;20225;-66
2023/07/16 12:00:57;;;;;;;5.30;4.93;;;29.70;58.40;;;;;;6271954;28;20196;-65
2023/07/16 12:03:57;;;;;;;6.07;5.47;;;29.70;58.50;;;;;;6257259;28;20187;-65
2023/07/16 12:06:58;;;;;;;5.90;5.40;;;29.70;57.20;;;;;;6260146;28;20183;-65
2023/07/16 12:09:59;;;;;;;5.83;5.43;;;29.50;57.20;;;;;;6272086;28;20192;-65
2023/07/16 12:13:00;;;;;;;5.97;5.47;;;29.40;57.20;;;;;;6272260;28;20185;-65
2023/07/16 12:16:00;;;;;;;7.03;5.70;;;29.30;58.90;;;;;;6266142;28;20197;-65
2023/07/16 12:19:01;;;;;;;5.70;5.20;;;29.30;61.00;;;;;;6263312;28;20213;-65
2023/07/16 12:22:03;;;;;;;5.57;5.17;;;29.40;60.50;;;;;;6255107;28;20201;-65
2023/07/16 12:25:04;;;;;;;5.40;4.90;;;29.50;61.60;;;;;;6254903;28;20216;-65
2023/07/16 12:28:04;;;;;;;5.87;5.40;;;29.50;62.90;;;;;;6247890;28;20226;-65
2023/07/16 12:31:05;;;;;;;5.63;5.23;;;29.50;63.10;;;;;;6260729;28;20185;-65
2023/07/16 12:34:06;;;;;;;5.53;5.03;;;29.60;62.70;;;;;;6256062;28;20201;-65
2023/07/16 12:37:06;;;;;;;6.00;5.50;;;29.70;62.30;;;;;;6249583;28;20189;-65
2023/07/16 12:40:08;;;;;;;5.33;4.93;;;30.00;62.80;;;;;;6263862;28;20245;-65
2023/07/16 12:43:09;;;;;;;6.00;5.50;;;30.00;61.10;;;;;;6247937;28;20182;-65
2023/07/16 12:46:09;;;;;;;5.87;5.27;;;30.00;61.70;;;;;;6252940;28;20267;-65
2023/07/16 12:49:10;;;;;;;5.97;5.47;;;30.10;60.00;;;;;;6242951;28;20189;-65
2023/07/16 12:52:11;;;;;;;5.23;4.73;;;30.60;59.50;;;;;;6269260;28;20187;-65
2023/07/16 12:55:13;;;;;;;4.97;4.57;;;31.30;55.80;;;;;;6268530;28;20201;-65
2023/07/16 12:58:14;;;;;;;5.47;4.93;;;31.60;53.80;;;;;;6258452;28;20309;-65
2023/07/16 13:01:15;;;;;;;5.90;5.40;;;31.60;52.80;;;;;;6263842;28;20189;-65
2023/07/16 13:04:15;;;;;;;5.20;4.70;;;31.40;53.60;;;;;;6246350;28;20192;-65
2023/07/16 13:07:16;;;;;;;5.70;5.20;;;31.20;54.70;;;;;;6262714;28;20194;-65
2023/07/16 13:10:17;;;;;;;5.20;4.73;;;31.00;56.00;;;;;;6252921;28;20242;-65
2023/07/16 13:13:18;;;;;;;5.63;5.10;;;31.00;57.50;;;;;;6256827;28;20185;-65
2023/07/16 13:16:18;;;;;;;5.50;5.00;;;31.10;58.20;;;;;;6251567;28;20191;-65
2023/07/16 13:19:19;;;;;;;5.33;4.93;;;31.10;58.40;;;;;;6259988;28;20218;-65
2023/07/16 13:22:20;;;;;;;6.03;5.57;;;31.00;58.50;;;;;;6261002;28;20248;-65
2023/07/16 13:25:21;;;;;;;6.10;5.37;;;30.90;57.50;;;;;;6264946;28;20206;-65
2023/07/16 13:28:24;;;;;;;6.27;5.67;;;30.70;58.30;;;;;;6247411;28;20284;-65
2023/07/16 13:31:24;;;;;;;5.80;5.40;;;30.50;59.40;;;;;;6240961;28;20239;-65
2023/07/16 13:34:25;;;;;;;6.07;5.27;;;30.30;59.70;;;;;;6260327;28;20190;-65
2023/07/16 13:37:27;;;;;;;6.13;5.33;;;30.10;60.40;;;;;;6263806;28;20281;-65
2023/07/16 13:40:28;;;;;;;5.30;4.90;;;;;;;;;;6263196;28;20301;-65
2023/07/16 13:43:29;;;;;;;5.37;4.87;;;;;;;;;;6247766;28;20277;-65
2023/07/16 13:46:30;;;;;;;5.50;5.00;;;30.10;62.30;;;;;;6270676;28;20186;-65
2023/07/16 13:49:31;;;;;;;5.93;5.40;;;31.50;60.10;;;;;;6252779;28;20251;-65
2023/07/16 13:52:32;;;;;;;5.53;5.03;;;32.00;58.60;;;;;;6240047;28;20205;-65
2023/07/16 13:55:33;;;;;;;5.73;5.23;;;32.50;56.80;;;;;;6234708;28;20209;-65
2023/07/16 13:58:35;;;;;;;5.50;5.10;;;32.80;56.50;;;;;;6245972;28;20217;-65
2023/07/16 14:01:40;;;;;;;6.40;5.80;;;33.10;56.90;;;;;;6234049;28;20194;-65
2023/07/16 14:04:41;;;;;;;5.67;5.17;;;33.40;54.60;;;;;;6265533;28;20201;-65
2023/07/16 14:07:42;;;;;;;5.23;4.83;;;33.70;55.10;;;;;;6265540;28;20186;-65
2023/07/16 14:10:42;;;;;;;5.93;5.40;;;34.00;56.20;;;;;;6242405;28;20201;-65
2023/07/16 14:13:44;;;;;;;5.37;4.97;;;34.10;53.00;;;;;;6252136;28;20198;-65
2023/07/16 14:16:45;;;;;;;5.67;5.27;;;34.00;52.40;;;;;;6254195;28;20237;-65
2023/07/16 14:19:46;;;;;;;5.70;5.30;;;34.00;53.80;;;;;;6254408;28;20222;-65
2023/07/16 14:22:47;;;;;;;6.13;5.73;;;34.10;52.80;;;;;;6252497;28;20208;-65
2023/07/16 14:25:48;;;;;;;5.70;5.30;;;34.20;51.40;;;;;;6251307;28;20198;-65
2023/07/16 14:28:49;;;;;;;5.67;5.17;;;34.40;52.20;;;;;;6240880;28;20243;-65
2023/07/16 14:31:50;;;;;;;5.90;5.47;;;34.50;52.60;;;;;;6267487;28;20194;-65
2023/07/16 14:34:51;;;;;;;5.97;5.40;;;34.50;53.50;;;;;;6261213;28;20228;-65
2023/07/16 14:37:52;;;;;;;6.13;5.67;;;34.40;52.40;;;;;;6271147;28;20252;-65
2023/07/16 14:40:53;;;;;;;6.07;5.53;;;34.00;52.00;;;;;;6265578;28;20213;-65
2023/07/16 14:43:54;;;;;;;6.43;5.93;;;34.00;52.90;;;;;;6244358;28;20189;-65
2023/07/16 14:46:55;;;;;;;5.87;5.37;;;33.90;53.00;;;;;;6251043;28;20227;-65
2023/07/16 14:49:56;;;;;;;6.10;5.60;;;33.60;51.50;;;;;;6253680;28;20205;-65
2023/07/16 14:52:57;;;;;;;7.20;5.87;;;33.30;51.60;;;;;;6267895;28;20216;-65
2023/07/16 14:55:57;;;;;;;6.57;5.97;;;33.00;52.80;;;;;;6266640;28;20233;-64
2023/07/16 14:58:58;;;;;;;6.77;6.03;;;32.70;54.70;;;;;;6262272;28;20214;-64
2023/07/16 15:02:00;;;;;;;6.67;6.07;;;32.60;54.30;;;;;;6273716;28;20272;-64
2023/07/16 15:05:01;;;;;;;6.67;6.07;;;32.50;54.30;;;;;;6264878;28;20281;-64
2023/07/16 15:08:02;;;;;;;6.23;5.73;;;32.50;54.40;;;;;;6268535;28;20192;-65
2023/07/16 15:11:03;;;;;;;6.73;6.20;;;32.00;53.40;;;;;;6247649;28;20193;-65
2023/07/16 15:14:05;;;;;;;6.50;5.90;;;31.80;54.70;;;;;;6240261;28;20274;-65
2023/07/16 15:17:06;;;;;;;6.33;5.83;;;;;;;;;;6252150;28;20185;-65
2023/07/16 15:20:08;;;;;;;7.40;6.80;;;;;;;;;;6280558;28;20304;-64
2023/07/16 15:23:09;;;;;;;6.37;5.83;;;31.20;57.30;;;;;;6276471;28;20261;-65
2023/07/16 15:26:11;;;;;;;6.73;5.90;;;31.10;57.50;;;;;;6270636;28;20200;-64
2023/07/16 15:29:12;;;;;;;6.47;5.87;;;31.00;57.90;;;;;;6247611;28;20229;-64
2023/07/16 15:32:13;;;;;;;7.20;6.50;;;30.90;58.90;;;;;;6241607;28;20217;-64
2023/07/16 15:35:15;;;;;;;6.43;5.93;;;30.70;58.90;;;;;;6246181;28;20205;-64
2023/07/16 15:38:16;;;;;;;5.30;4.67;;;30.50;59.00;;;;;;6243541;28;20213;-64
2023/07/16 15:41:26;;;;;;;6.43;5.93;;;30.30;59.60;;;;;;6260303;28;20185;-64
2023/07/16 15:44:27;;;;;;;6.87;6.17;;;30.30;59.40;;;;;;6243852;28;20258;-64
2023/07/16 15:47:29;;;;;;;6.87;6.20;;;30.30;59.70;;;;;;6244887;28;20186;-64
2023/07/16 15:50:30;;;;;;;6.73;6.13;;;30.30;59.20;;;;;;6243350;28;20212;-64
2023/07/16 15:53:30;;;;;;;7.20;5.97;;;30.10;60.20;;;;;;6264159;28;20202;-63
2023/07/16 15:56:32;;;;;;;6.90;6.30;;;30.00;60.00;;;;;;6243112;28;20202;-63
2023/07/16 15:59:33;;;;;;;6.90;6.20;;;30.00;61.70;;;;;;6274615;28;20229;-63
2023/07/16 16:02:34;;;;;;;7.03;6.37;;;29.90;61.40;;;;;;6256413;28;20273;-63
2023/07/16 16:05:36;;;;;;;6.90;6.40;;;29.90;62.30;;;;;;6248380;28;20281;-63
2023/07/16 16:08:38;;;;;;;6.63;5.97;;;30.00;62.70;;;;;;6258550;28;20199;-64
2023/07/16 16:11:38;;;;;;;6.40;5.90;;;30.10;62.60;;;;;;6249918;28;20190;-63
2023/07/16 16:14:40;;;;;;;6.07;5.63;;;30.30;61.90;;;;;;6265647;28;20194;-64
2023/07/16 16:17:42;;;;;;;5.87;5.30;;;30.30;61.40;;;;;;6239319;28;20206;-64
2023/07/16 16:20:44;;;;;;;6.33;5.80;;;30.30;61.70;;;;;;6237265;28;20221;-64
2023/07/16 16:23:45;;;;;;;5.90;5.50;;;30.30;61.20;;;;;;6249501;28;20190;-64
2023/07/16 16:26:46;;;;;;;6.93;6.23;;;30.30;60.70;;;;;;6259189;28;20285;-65
2023/07/16 16:29:47;;;;;;;6.37;5.77;;;30.30;61.60;;;;;;6243993;28;20230;-65
2023/07/16 16:32:52;;;;;;;5.97;5.50;;;30.30;61.80;;;;;;6235507;28;20189;-65
2023/07/16 16:35:53;;;;;;;6.03;5.50;;;30.20;61.20;;;;;;6276457;28;20218;-65
2023/07/16 16:38:54;;;;;;;7.23;5.60;;;30.10;61.70;;;;;;6248734;28;20210;-65
2023/07/16 16:41:55;;;;;;;6.90;6.30;;;30.10;62.20;;;;;;6246076;28;20191;-65
2023/07/16 16:44:57;;;;;;;5.87;5.33;;;30.10;62.30;;;;;;6246434;28;20235;-65
2023/07/16 16:48:03;;;;;;;6.33;5.80;;;30.00;61.80;;;;;;6247005;28;20214;-65
2023/07/16 16:51:05;;;;;;;6.77;6.17;;;29.80;62.00;;;;;;6276259;28;20190;-64
2023/07/16 16:54:08;;;;;;;6.27;5.67;;;29.60;61.70;;;;;;6256691;28;20190;-65
2023/07/16 16:57:09;;;;;;;6.40;5.90;;;29.50;64.10;;;;;;6246945;28;20183;-65
2023/07/16 17:00:13;;;;;;;6.20;5.60;;;29.40;64.00;;;;;;6270628;28;20288;-65
2023/07/16 17:03:17;;;;;;;6.07;5.47;;;29.30;63.50;;;;;;6257254;28;20186;-65
2023/07/16 17:06:18;;;;;;;6.50;5.53;;;29.30;63.70;;;;;;6250647;28;20198;-65